createdAt,value
2022-11-20T16:51:44.268Z,5.22
2022-11-20T16:57:55.487Z,6.13
2022-11-20T17:07:16.637Z,8.57
2022-11-20T17:09:51.124Z,7.32
2022-11-20T17:12:18.389Z,5.25
2022-11-20T17:14:54.188Z,6.53
2022-11-20T17:17:20.781Z,6.38
2022-11-20T17:20:06.508Z,5.78
2022-11-20T17:23:03.813Z,6.55
2022-11-20T18:04:52.032Z,4.65
2022-11-20T18:16:00.616Z,6.78
2022-11-20T18:18:49.108Z,8.05
2022-11-20T18:24:55.287Z,9.73
2022-11-20T18:27:46.469Z,13.15
2022-11-20T18:33:25.447Z,11.73
2022-11-20T18:37:08.702Z,13.05
2022-11-20T18:46:53.397Z,12.48
2022-11-20T19:00:52.678Z,9.60
2022-11-20T19:08:04.767Z,9.38
2022-11-20T19:11:48.227Z,8.55
2022-11-20T19:15:19.343Z,10.40
2022-11-20T19:17:46.908Z,9.68
2022-11-20T19:20:16.199Z,10.02
2022-11-20T19:22:50.615Z,7.30
2022-11-20T19:25:47.728Z,8.80
2022-11-20T19:31:56.764Z,8.98
2022-11-20T19:34:50.391Z,7.47
2022-11-20T19:37:24.542Z,8.68
2022-11-20T19:40:00.882Z,8.40
2022-11-20T19:42:53.376Z,10.35
2022-11-20T19:48:15.689Z,11.00
2022-11-20T19:50:51.760Z,11.43
2022-11-20T19:53:20.227Z,14.07
2022-11-20T19:56:10.392Z,16.45
2022-11-20T20:03:10.098Z,12.45
2022-11-20T20:06:06.128Z,11.13
2022-11-20T20:09:23.510Z,12.75
2022-11-20T20:11:53.801Z,11.55
2022-11-20T20:14:21.127Z,12.63
2022-11-20T20:17:40.308Z,12.77
2022-11-20T20:24:00.765Z,11.55
2022-11-20T20:34:01.055Z,10.77
2022-11-20T20:37:40.028Z,10.25
2022-11-20T20:40:14.761Z,9.30
2022-11-20T20:44:04.753Z,9.77
2022-11-20T20:51:09.784Z,10.23
2022-11-20T20:53:56.365Z,10.25
2022-11-20T20:57:20.173Z,13.30
2022-11-20T20:59:55.313Z,13.27
2022-11-20T21:06:01.447Z,10.63
2022-11-20T21:09:11.355Z,10.82
2022-11-20T21:12:53.686Z,12.70
2022-11-20T21:15:24.126Z,10.70
2022-11-20T21:17:51.218Z,10.25
2022-11-20T21:23:46.666Z,9.95
2022-11-20T21:26:16.715Z,8.40
2022-11-20T21:28:50.753Z,10.30
2022-11-20T21:31:26.515Z,12.13
2022-11-20T21:34:15.271Z,13.25
2022-11-20T21:37:08.509Z,13.05
2022-11-20T21:39:50.818Z,11.75
2022-11-20T21:42:21.161Z,10.32
2022-11-20T21:44:49.502Z,12.13
2022-11-20T21:47:16.550Z,12.90
2022-11-20T21:52:14.006Z,8.82
2022-11-20T21:54:46.116Z,14.32
2022-11-20T21:57:13.410Z,11.52
2022-11-20T21:59:41.764Z,11.20
2022-11-20T22:02:12.330Z,10.55
2022-11-20T22:04:49.919Z,14.18
2022-11-20T22:07:17.857Z,12.65
2022-11-20T22:09:46.417Z,11.30
2022-11-20T22:12:14.802Z,10.13
2022-11-20T22:14:46.004Z,12.35
2022-11-20T22:17:46.643Z,10.98
2022-11-20T22:20:18.392Z,8.63
2022-11-20T22:23:00.653Z,9.82
2022-11-20T22:28:13.381Z,10.45
2022-11-20T22:31:06.567Z,8.05
2022-11-20T22:33:43.681Z,10.57
2022-11-20T22:36:11.571Z,8.80
2022-11-20T22:38:48.709Z,10.90
2022-11-20T22:41:50.219Z,11.75
2022-11-20T22:44:16.246Z,11.82
2022-11-20T22:47:11.386Z,10.68
2022-11-20T22:49:48.571Z,9.75
2022-11-20T22:52:15.243Z,8.05
2022-11-20T22:54:49.106Z,8.30
2022-11-20T22:57:15.635Z,10.05
2022-11-20T22:59:42.386Z,10.63
2022-11-20T23:02:08.917Z,9.02
2022-11-20T23:04:51.692Z,11.73
2022-11-20T23:07:19.365Z,11.57
2022-11-20T23:09:46.136Z,9.90
2022-11-20T23:12:14.586Z,10.77
2022-11-20T23:14:50.397Z,10.48
2022-11-20T23:17:17.882Z,8.18
2022-11-20T23:19:45.389Z,8.18
2022-11-20T23:22:11.929Z,8.27
2022-11-20T23:25:04.517Z,7.57
2022-11-20T23:27:46.710Z,11.60
2022-11-20T23:30:13.898Z,8.90
2022-11-20T23:35:58.849Z,10.43
2022-11-20T23:38:25.525Z,7.88
2022-11-20T23:40:53.494Z,9.82
2022-11-20T23:43:22.325Z,7.97
2022-11-20T23:45:59.051Z,9.65
2022-11-20T23:48:46.655Z,10.13
2022-11-20T23:51:14.570Z,8.93
2022-11-20T23:53:46.332Z,9.85
2022-11-20T23:56:16.003Z,9.32
2022-11-20T23:58:47.196Z,9.27
